Time;durP1;ratioP1;P1;durP2;ratioP2;P2;SDS_P1;SDS_P2;PMS_P1;PMS_P2;Temp;Humidity;BMP_temperature;BMP_pressure;BME280_temperature;BME280_humidity;BME280_pressure;Samples;Min_cycle;Max_cycle;Signal;HPM_P1;HPM_P2
2023/03/24 00:02:27;;;;;;;11.93;7.70;;;;;;;11.50;100.00;99448.00;5028927;28;20722;-71
2023/03/24 00:04:57;;;;;;;12.23;8.07;;;;;;;11.56;100.00;99451.50;5025631;28;20230;-72
2023/03/24 00:07:24;;;;;;;11.70;7.30;;;;;;;11.52;100.00;99444.44;5029461;28;20203;-71
2023/03/24 00:09:52;;;;;;;11.20;7.47;;;;;;;11.51;100.00;99439.16;5028390;28;20206;-74
2023/03/24 00:12:18;;;;;;;10.10;6.70;;;;;;;11.50;100.00;99437.41;5023916;28;20270;-74
2023/03/24 00:14:45;;;;;;;11.33;8.07;;;;;;;11.54;100.00;99432.06;5023962;28;20236;-71
2023/03/24 00:17:12;;;;;;;10.27;7.10;;;;;;;11.52;100.00;99436.50;5026946;28;20198;-72
2023/03/24 00:19:39;;;;;;;12.07;6.97;;;;;;;11.49;100.00;99428.56;5030858;28;20210;-74
2023/03/24 00:22:13;;;;;;;8.63;6.23;;;;;;;11.60;100.00;99434.66;5024577;28;20222;-72
2023/03/24 00:24:40;;;;;;;11.17;6.43;;;;;;;11.63;100.00;99424.97;5031766;28;20215;-72
2023/03/24 00:27:07;;;;;;;10.83;6.67;;;;;;;11.64;100.00;99427.59;5025588;28;20241;-71
2023/03/24 00:29:35;;;;;;;9.10;6.13;;;;;;;11.69;100.00;99423.16;5025483;28;20252;-73
2023/03/24 00:32:01;;;;;;;7.33;5.53;;;;;;;11.69;100.00;99422.28;5029231;28;20733;-72
2023/03/24 00:34:27;;;;;;;12.67;6.67;;;;;;;11.70;100.00;99408.13;5030638;28;20225;-71
2023/03/24 00:36:54;;;;;;;7.93;5.70;;;;;;;11.66;100.00;99411.69;5030755;28;20203;-70
2023/03/24 00:39:20;;;;;;;8.27;6.00;;;;;;;11.63;100.00;99404.63;5028639;28;20198;-69
2023/03/24 00:41:47;;;;;;;9.40;6.40;;;;;;;11.54;100.00;99397.59;5022451;28;20586;-69
2023/03/24 00:44:18;;;;;;;8.73;5.90;;;;;;;11.49;100.00;99388.78;5027644;28;20216;-69
2023/03/24 00:46:54;;;;;;;8.47;5.90;;;;;;;11.36;100.00;99380.94;5025647;28;20279;-69
2023/03/24 00:49:41;;;;;;;8.23;6.43;;;;;;;11.28;100.00;99384.50;5015932;28;20217;-70
2023/03/24 00:52:19;;;;;;;7.10;5.67;;;;;;;11.19;100.00;99381.00;5025579;28;20688;-69
2023/03/24 00:54:47;;;;;;;8.87;5.87;;;;;;;11.08;100.00;99378.44;5025195;28;20696;-69
2023/03/24 00:57:21;;;;;;;8.73;5.90;;;;;;;10.93;100.00;99373.22;5027249;28;20199;-70
2023/03/24 00:59:49;;;;;;;7.60;5.23;;;;;;;10.82;100.00;99365.31;5026967;28;20671;-69
2023/03/24 01:02:20;;;;;;;8.97;5.83;;;;;;;10.82;100.00;99352.06;5027015;28;20255;-69
2023/03/24 01:04:53;;;;;;;7.27;5.20;;;;;;;10.88;100.00;99348.50;5024552;28;20782;-73
2023/03/24 01:07:21;;;;;;;8.97;5.77;;;;;;;10.87;100.00;99358.22;5024520;28;20244;-69
2023/03/24 01:09:56;;;;;;;9.73;5.60;;;;;;;10.83;100.00;99351.19;5026974;28;20652;-69
2023/03/24 01:12:28;;;;;;;8.60;6.10;;;;;;;10.89;100.00;99350.28;5021371;28;20257;-71
2023/03/24 01:15:04;;;;;;;7.37;5.47;;;;;;;10.89;100.00;99352.91;5026714;28;20189;-69
2023/03/24 01:17:31;;;;;;;7.73;5.20;;;;;;;10.93;100.00;99346.72;5022864;28;20202;-70
2023/03/24 01:19:57;;;;;;;11.80;6.13;;;;;;;10.97;100.00;99353.75;5028109;28;20258;-69
2023/03/24 01:22:29;;;;;;;8.87;6.00;;;;;;;11.05;100.00;99344.00;5028347;28;20276;-69
2023/03/24 01:24:55;;;;;;;8.73;5.77;;;;;;;11.05;100.00;99351.06;5024369;28;20631;-69
2023/03/24 01:27:23;;;;;;;8.57;6.17;;;;;;;11.12;100.00;99343.06;5029800;28;20206;-69
2023/03/24 01:29:49;;;;;;;9.07;5.60;;;;;;;11.10;100.00;99339.53;5023340;28;20202;-69
2023/03/24 01:32:16;;;;;;;13.53;6.13;;;;;;;11.17;100.00;99325.38;5028068;28;20722;-69
2023/03/24 01:34:42;;;;;;;8.13;5.57;;;;;;;11.11;100.00;99329.84;5029154;28;20244;-68
2023/03/24 01:37:08;;;;;;;11.17;5.97;;;;;;;11.12;100.00;99334.25;5029348;28;20262;-69
2023/03/24 01:39:35;;;;;;;10.43;5.83;;;;;;;11.14;100.00;99330.69;5027999;28;20210;-69
2023/03/24 01:42:02;;;;;;;7.13;5.40;;;;;;;11.13;100.00;99334.22;5020409;28;20217;-69
2023/03/24 01:44:35;;;;;;;7.47;5.40;;;;;;;11.13;100.00;99333.34;5024278;28;20221;-70
2023/03/24 01:47:06;;;;;;;7.17;5.37;;;;;;;11.04;100.00;99322.81;5020674;28;20208;-69
2023/03/24 01:50:01;;;;;;;6.97;5.33;;;;;;;10.96;100.00;99325.50;5016179;28;20235;-69
2023/03/24 01:52:34;;;;;;;6.43;5.13;;;;;;;10.93;100.00;99328.19;5026254;28;20675;-70
2023/03/24 01:55:17;;;;;;;7.40;5.40;;;;;;;10.89;100.00;99323.78;5028049;28;20203;-69
2023/03/24 01:57:48;;;;;;;8.67;5.47;;;;;;;10.86;100.00;99322.03;5025186;28;20582;-69
2023/03/24 02:00:17;;;;;;;8.23;5.27;;;;;;;10.84;100.00;99321.16;5026402;28;20196;-69
2023/03/24 02:02:53;;;;;;;7.73;5.40;;;;;;;10.84;100.00;99312.34;5028000;28;20200;-69
2023/03/24 02:05:23;;;;;;;8.37;6.07;;;;;;;10.86;100.00;99300.84;5022527;28;20190;-69
2023/03/24 02:08:27;;;;;;;7.87;5.73;;;;;;;10.86;100.00;99289.38;5024046;28;20647;-69
2023/03/24 02:10:55;;;;;;;7.33;5.37;;;;;;;10.92;100.00;99274.31;5027212;28;20701;-70
2023/03/24 02:13:22;;;;;;;8.33;5.53;;;;;;;10.98;100.00;99265.44;5020620;28;20209;-69
2023/03/24 02:16:00;;;;;;;10.67;5.47;;;;;;;11.10;100.00;99260.06;5020684;28;20199;-69
2023/03/24 02:18:55;;;;;;;9.03;5.97;;;;;;;11.20;100.00;99260.88;5027306;28;20621;-69
2023/03/24 02:21:54;;;;;;;9.90;6.10;;;;;;;11.10;100.00;99253.88;5027169;28;20745;-69
2023/03/24 02:24:38;;;;;;;8.77;5.90;;;;;;;11.08;100.00;99258.31;5018153;28;20214;-69
2023/03/24 02:27:28;;;;;;;8.10;5.70;;;;;;;11.04;100.00;99233.63;5027499;28;20201;-69
2023/03/24 02:30:03;;;;;;;9.03;5.90;;;;;;;10.98;100.00;99237.19;5027462;28;21085;-70
2023/03/24 02:32:42;;;;;;;8.53;6.03;;;;;;;10.90;100.00;99225.78;5022735;28;20272;-70
2023/03/24 02:35:41;;;;;;;13.20;7.20;;;;;;;10.90;100.00;99225.78;5027621;28;20194;-70
2023/03/24 02:38:28;;;;;;;8.97;6.10;;;;;;;10.85;100.00;99230.22;5026507;28;20198;-69
2023/03/24 02:40:57;;;;;;;8.67;6.03;;;;;;;10.77;100.00;99232.00;5018187;28;21737;-70
2023/03/24 02:43:42;;;;;;;7.80;5.40;;;;;;;10.68;100.00;99229.44;5023053;28;20256;-69
2023/03/24 02:46:23;;;;;;;9.20;6.07;;;;;;;10.59;100.00;99237.44;5013372;28;20230;-70
2023/03/24 02:49:23;;;;;;;8.67;5.50;;;;;;;10.52;100.00;99248.94;5010219;28;20677;-71
2023/03/24 02:51:59;;;;;;;9.13;6.37;;;;;;;10.50;100.00;99254.25;5018118;28;20227;-71
2023/03/24 02:54:48;;;;;;;13.07;7.03;;;;;;;10.49;100.00;99243.66;5025609;28;20894;-69
2023/03/24 02:57:37;;;;;;;9.67;6.00;;;;;;;10.54;100.00;99244.50;5014938;28;20206;-69
2023/03/24 03:00:25;;;;;;;9.90;6.40;;;;;;;10.53;100.00;99235.69;5024205;28;20231;-69
2023/03/24 03:03:05;;;;;;;8.57;6.13;;;;;;;10.53;100.00;99235.69;5023142;28;20203;-69
2023/03/24 03:06:04;;;;;;;7.60;5.87;;;;;;;10.43;100.00;99238.41;5023689;28;20233;-69
2023/03/24 03:08:33;;;;;;;11.37;6.50;;;;;;;10.41;100.00;99234.88;5017867;28;20274;-69
2023/03/24 03:11:04;;;;;;;8.77;6.27;;;;;;;10.43;100.00;99227.81;5027735;28;20218;-69
2023/03/24 03:13:37;;;;;;;8.77;6.00;;;;;;;10.62;100.00;99218.88;5026535;28;20206;-72
2023/03/24 03:16:09;;;;;;;8.47;5.77;;;;;;;10.61;100.00;99210.06;5018129;28;20230;-69
2023/03/24 03:18:42;;;;;;;9.37;6.13;;;;;;;10.74;100.00;99205.56;5027918;28;20240;-69
2023/03/24 03:21:14;;;;;;;9.20;6.50;;;;;;;10.74;100.00;99208.19;5026733;28;20255;-70
2023/03/24 03:23:45;;;;;;;8.83;5.90;;;;;;;10.76;100.00;99211.72;5026908;28;20309;-69
2023/03/24 03:26:16;;;;;;;11.23;6.43;;;;;;;10.84;100.00;99211.69;5017021;28;20203;-69
2023/03/24 03:28:49;;;;;;;7.47;6.07;;;;;;;10.86;100.00;99199.31;5028296;28;20213;-71
2023/03/24 03:31:28;;;;;;;7.83;5.40;;;;;;;10.88;100.00;99201.06;5023279;28;20246;-70
2023/03/24 03:34:05;;;;;;;9.80;6.23;;;;;;;11.01;100.00;99208.91;5026887;28;20200;-71
2023/03/24 03:36:46;;;;;;;9.43;5.83;;;;;;;11.07;100.00;99203.56;5020764;28;20195;-70
2023/03/24 03:39:32;;;;;;;7.60;5.57;;;;;;;11.15;100.00;99202.59;5025989;28;20210;-70
2023/03/24 03:41:58;;;;;;;6.87;5.60;;;;;;;11.19;100.00;99199.03;5026305;28;20629;-70
2023/03/24 03:44:25;;;;;;;7.93;5.80;;;;;;;11.11;100.00;99207.94;5031957;28;20347;-70
2023/03/24 03:46:52;;;;;;;7.80;6.00;;;;;;;11.12;100.00;99207.94;5028315;28;20589;-70
2023/03/24 03:49:18;;;;;;;7.70;5.80;;;;;;;11.22;100.00;99207.00;5028836;28;20195;-72
2023/03/24 03:51:45;;;;;;;8.27;5.83;;;;;;;11.12;100.00;99199.09;5028007;28;20225;-71
2023/03/24 03:54:13;;;;;;;7.70;5.60;;;;;;;11.18;100.00;99202.56;5028460;28;20195;-70
2023/03/24 03:56:41;;;;;;;8.30;5.80;;;;;;;11.11;100.00;99202.66;5020122;28;20204;-71
2023/03/24 03:59:21;;;;;;;9.53;6.57;;;;;;;11.01;100.00;99201.84;5026399;28;20609;-71
2023/03/24 04:01:48;;;;;;;8.07;6.27;;;;;;;10.91;100.00;99193.09;5025455;28;20219;-71
2023/03/24 04:04:51;;;;;;;9.47;6.17;;;;;;;10.93;100.00;99193.97;5024725;28;20579;-70
2023/03/24 04:07:31;;;;;;;9.73;6.60;;;;;;;10.86;100.00;99188.72;5023128;28;20686;-70
2023/03/24 04:10:29;;;;;;;8.90;6.63;;;;;;;10.82;100.00;99189.63;5029428;28;20204;-71
2023/03/24 04:13:11;;;;;;;12.23;6.40;;;;;;;10.79;100.00;99189.63;5025773;28;20222;-70
2023/03/24 04:15:46;;;;;;;9.37;6.30;;;;;;;10.82;100.00;99205.53;5023916;28;20297;-70
2023/03/24 04:18:21;;;;;;;8.47;6.30;;;;;;;10.88;100.00;99202.84;5025047;28;20201;-71
2023/03/24 04:20:50;;;;;;;10.40;6.47;;;;;;;10.95;100.00;99210.72;5031634;28;20308;-70
2023/03/24 04:23:40;;;;;;;10.17;6.37;;;;;;;10.87;100.00;99201.06;5030063;28;20230;-70
2023/03/24 04:26:40;;;;;;;9.63;6.40;;;;;;;10.93;100.00;99204.56;5025637;28;20195;-70
2023/03/24 04:29:35;;;;;;;9.90;6.80;;;;;;;10.95;100.00;99215.13;5028113;28;20675;-71
2023/03/24 04:32:29;;;;;;;8.57;5.93;;;;;;;10.96;100.00;99204.53;5029190;28;20228;-70
2023/03/24 04:35:00;;;;;;;11.87;7.20;;;;;;;10.99;100.00;99212.47;5021681;28;20606;-70
2023/03/24 04:37:36;;;;;;;10.03;7.10;;;;;;;10.98;100.00;99213.34;5025894;28;20221;-70
2023/03/24 04:40:13;;;;;;;12.67;7.23;;;;;;;11.02;100.00;99203.59;5027357;28;20191;-71
2023/03/24 04:42:45;;;;;;;10.83;6.67;;;;;;;11.01;100.00;99203.63;5021689;28;20758;-70
2023/03/24 04:45:13;;;;;;;14.90;7.30;;;;;;;11.08;100.00;99192.06;5027117;28;20244;-70
2023/03/24 04:47:47;;;;;;;11.30;7.17;;;;;;;11.17;100.00;99184.91;5038464;28;20201;-70
2023/03/24 04:50:13;;;;;;;10.00;6.60;;;;;;;11.16;100.00;99174.34;5024129;28;20589;-72
2023/03/24 04:52:41;;;;;;;11.43;6.97;;;;;;;11.23;100.00;99169.00;5024827;28;20605;-70
2023/03/24 04:55:19;;;;;;;8.63;6.40;;;;;;;11.22;100.00;99169.00;5022257;28;20283;-71
2023/03/24 04:57:46;;;;;;;8.77;5.83;;;;;;;11.26;100.00;99171.63;5025690;28;20223;-71
2023/03/24 05:00:12;;;;;;;10.77;6.13;;;;;;;11.36;100.00;99168.88;5024888;28;20712;-70
2023/03/24 05:02:39;;;;;;;8.10;5.83;;;;;;;11.37;100.00;99167.97;5022752;28;20215;-70
2023/03/24 05:05:06;;;;;;;9.40;6.40;;;;;;;11.43;100.00;99171.44;5030003;28;20590;-70
2023/03/24 05:07:32;;;;;;;9.70;6.33;;;;;;;11.44;100.00;99164.38;5028046;28;20205;-70
2023/03/24 05:09:59;;;;;;;8.23;5.80;;;;;;;11.49;100.00;99171.38;5020349;28;20208;-70
2023/03/24 05:12:25;;;;;;;12.47;6.83;;;;;;;11.55;100.00;99181.03;5023498;28;20899;-70
2023/03/24 05:14:51;;;;;;;9.93;6.03;;;;;;;11.59;100.00;99188.06;5025107;28;20226;-70
2023/03/24 05:17:18;;;;;;;9.93;6.13;;;;;;;11.74;100.00;99198.53;5020287;28;20199;-70
2023/03/24 05:19:44;;;;;;;9.33;5.90;;;;;;;11.75;100.00;99192.34;5028944;28;20199;-70
2023/03/24 05:22:10;;;;;;;10.37;5.93;;;;;;;11.70;100.00;99196.81;5026650;28;20211;-70
2023/03/24 05:24:39;;;;;;;9.27;5.90;;;;;;;11.67;100.00;99203.94;5028268;28;20250;-70
2023/03/24 05:27:05;;;;;;;9.13;6.50;;;;;;;11.74;100.00;99205.63;5023724;28;20568;-70
2023/03/24 05:29:32;;;;;;;11.30;6.37;;;;;;;11.72;100.00;99204.75;5017377;28;20704;-70
2023/03/24 05:31:58;;;;;;;11.40;6.60;;;;;;;11.69;100.00;99204.78;5023179;28;20433;-70
2023/03/24 05:34:25;;;;;;;11.30;6.77;;;;;;;11.65;100.00;99196.00;5025563;28;20206;-71
2023/03/24 05:36:51;;;;;;;9.57;6.90;;;;;;;11.64;100.00;99198.66;5028716;28;20280;-69
2023/03/24 05:39:17;;;;;;;9.73;7.07;;;;;;;11.58;100.00;99197.78;5024086;28;20192;-70
2023/03/24 05:41:44;;;;;;;12.00;6.20;;;;;;;11.68;100.00;99208.34;5025053;28;20251;-70
2023/03/24 05:44:10;;;;;;;8.17;6.20;;;;;;;11.74;100.00;99217.09;5020881;28;20686;-70
2023/03/24 05:46:37;;;;;;;8.20;5.67;;;;;;;11.74;100.00;99221.53;5028175;28;20463;-70
2023/03/24 05:49:03;;;;;;;8.43;6.37;;;;;;;11.80;100.00;99222.38;5027839;28;20199;-70
2023/03/24 05:51:30;;;;;;;8.80;5.83;;;;;;;11.79;100.00;99230.34;5025701;28;20599;-70
2023/03/24 05:53:56;;;;;;;9.20;5.97;;;;;;;11.77;100.00;99234.75;5019345;28;20588;-70
2023/03/24 05:56:22;;;;;;;9.50;6.10;;;;;;;11.78;100.00;99239.22;5026032;28;20541;-70
2023/03/24 05:58:50;;;;;;;11.17;5.97;;;;;;;11.77;100.00;99234.75;5028083;28;20202;-70
2023/03/24 06:01:17;;;;;;;8.97;5.80;;;;;;;11.81;100.00;99247.13;5027724;28;20225;-70
2023/03/24 06:03:43;;;;;;;8.17;5.63;;;;;;;11.80;100.00;99243.59;5029882;28;20289;-70
2023/03/24 06:06:15;;;;;;;9.13;5.80;;;;;;;11.89;100.00;99248.81;5025234;28;20222;-72
2023/03/24 06:08:43;;;;;;;7.70;5.37;;;;;;;11.98;100.00;99260.22;5023818;28;20268;-70
2023/03/24 06:11:11;;;;;;;11.00;6.10;;;;;;;12.05;100.00;99254.84;5010930;28;20235;-73
2023/03/24 06:13:37;;;;;;;7.10;5.17;;;;;;;12.18;100.00;99255.59;5019250;28;20233;-71
2023/03/24 06:16:04;;;;;;;7.40;5.03;;;;;;;12.27;100.00;99260.78;5020888;28;20226;-72
2023/03/24 06:18:30;;;;;;;6.90;4.83;;;;;;;12.28;100.00;99261.66;5023369;28;20289;-72
2023/03/24 06:20:59;;;;;;;4.97;4.00;;;;;;;12.35;100.00;99263.34;5024113;28;20285;-71
2023/03/24 06:23:27;;;;;;;5.93;3.30;;;;;;;12.39;100.00;99267.72;5022588;28;20343;-72
2023/03/24 06:25:57;;;;;;;5.80;3.10;;;;;;;12.45;100.00;99267.66;5022459;28;20215;-72
2023/03/24 06:28:25;;;;;;;3.20;2.77;;;;;;;12.49;99.91;99270.25;5024906;28;20212;-72
2023/03/24 06:30:51;;;;;;;4.57;2.70;;;;;;;12.48;99.75;99265.84;5022128;28;20226;-74
2023/03/24 06:33:17;;;;;;;4.73;2.67;;;;;;;12.51;99.40;99270.25;5020064;28;20196;-73
2023/03/24 06:35:44;;;;;;;3.27;2.70;;;;;;;12.59;98.72;99275.44;5023845;28;20192;-72
2023/03/24 06:38:11;;;;;;;3.03;2.20;;;;;;;12.63;97.72;99262.09;5024416;28;20234;-73
2023/03/24 06:40:38;;;;;;;3.07;2.40;;;;;;;12.63;97.05;99259.44;5023461;28;20196;-73
2023/03/24 06:43:04;;;;;;;2.93;2.20;;;;;;;12.73;97.83;99271.72;5023148;28;20206;-73
2023/03/24 06:45:31;;;;;;;3.20;2.40;;;;;;;12.81;97.25;99271.63;5018912;28;20253;-72
2023/03/24 06:47:58;;;;;;;2.90;2.50;;;;;;;12.88;97.40;99267.97;5026872;28;20211;-74
2023/03/24 06:50:26;;;;;;;2.90;2.60;;;;;;;12.98;96.38;99274.03;5026148;28;20211;-72
2023/03/24 06:52:52;;;;;;;5.43;3.47;;;;;;;12.96;96.81;99281.16;5024972;28;20707;-75
2023/03/24 06:55:21;;;;;;;3.57;2.77;;;;;;;13.04;96.28;99280.13;5021740;28;20199;-78
2023/03/24 06:57:47;;;;;;;3.60;2.70;;;;;;;13.01;96.30;99276.66;5016644;28;20265;-74
2023/03/24 07:00:15;;;;;;;4.00;2.63;;;;;;;13.09;95.95;99278.28;5014256;28;20195;-78
2023/03/24 07:02:41;;;;;;;3.53;2.60;;;;;;;13.11;94.98;99268.50;5020779;28;20223;-78
2023/03/24 07:05:09;;;;;;;5.27;2.37;;;;;;;13.08;95.61;99260.59;5024867;28;20223;-78
2023/03/24 07:07:36;;;;;;;5.03;2.90;;;;;;;13.10;95.24;99268.53;5024411;28;20227;-77
2023/03/24 07:10:22;;;;;;;2.43;2.13;;;;;;;13.06;95.08;99277.47;5022851;28;20537;-81
2023/03/24 07:12:49;;;;;;;5.20;2.30;;;;;;;13.02;95.52;99278.41;5021883;28;20211;-77
2023/03/24 07:15:15;;;;;;;2.43;2.20;;;;;;;13.02;95.29;99286.38;5027768;28;20753;-77
2023/03/24 07:17:41;;;;;;;3.40;2.20;;;;;;;12.95;95.90;99293.56;5022648;28;20279;-78
2023/03/24 07:20:08;;;;;;;2.30;2.10;;;;;;;12.92;96.21;99293.59;5026044;28;20699;-79
2023/03/24 07:22:38;;;;;;;7.53;2.30;;;;;;;12.91;96.52;99299.81;5017525;28;20220;-80
2023/03/24 07:25:05;;;;;;;2.77;2.20;;;;;;;12.99;96.49;99297.94;5020742;28;20215;-82
2023/03/24 07:27:32;;;;;;;5.87;2.37;;;;;;;12.99;97.29;99302.38;5018518;28;20196;-78
2023/03/24 07:29:59;;;;;;;3.50;2.73;;;;;;;12.97;97.70;99296.19;5019208;28;20219;-80
2023/03/24 07:32:27;;;;;;;8.07;3.23;;;;;;;12.95;97.90;99293.56;5019566;28;20306;-81
2023/03/24 07:34:54;;;;;;;4.60;3.17;;;;;;;12.99;98.47;99302.38;5021290;28;20273;-79
2023/03/24 07:37:20;;;;;;;5.73;3.50;;;;;;;12.99;98.64;99300.59;5021889;28;20247;-80
2023/03/24 07:39:46;;;;;;;4.77;3.60;;;;;;;13.01;98.89;99308.53;5023734;28;20207;-82
2023/03/24 07:42:13;;;;;;;4.33;3.90;;;;;;;13.03;99.59;99309.41;5020856;28;20272;-82
2023/03/24 07:44:39;;;;;;;5.17;3.67;;;;;;;13.03;99.18;99304.97;5020598;28;20298;-80
2023/03/24 07:47:06;;;;;;;5.90;3.87;;;;;;;13.06;99.54;99309.34;5022537;28;20615;-82
2023/03/24 07:49:32;;;;;;;4.60;3.60;;;;;;;13.17;100.00;99308.31;5022085;28;20548;-79
2023/03/24 07:51:58;;;;;;;6.13;3.63;;;;;;;13.33;99.57;99319.63;5012803;28;20270;-82
2023/03/24 07:54:26;;;;;;;4.17;3.43;;;;;;;13.46;99.08;99301.69;5014345;28;20562;-80
2023/03/24 07:56:52;;;;;;;4.50;3.13;;;;;;;13.66;97.83;99302.28;5020027;28;20196;-81
2023/03/24 07:59:19;;;;;;;3.97;3.23;;;;;;;13.81;96.69;99301.13;5025334;28;20200;-80
2023/03/24 08:01:48;;;;;;;5.37;2.90;;;;;;;13.92;96.34;99315.13;5014822;28;20217;-79
2023/03/24 08:04:20;;;;;;;4.50;2.93;;;;;;;14.05;95.23;99311.34;5017473;28;20231;-79
2023/03/24 08:06:47;;;;;;;8.90;2.77;;;;;;;14.02;94.84;99310.53;5020482;28;20223;-77
2023/03/24 08:09:14;;;;;;;4.20;3.10;;;;;;;14.01;95.02;99303.44;5023394;28;20203;-77
2023/03/24 08:11:40;;;;;;;5.23;3.10;;;;;;;14.05;94.82;99313.13;5021902;28;20235;-76
2023/03/24 08:14:06;;;;;;;5.80;3.10;;;;;;;14.02;95.38;99316.72;5026220;28;20191;-77
2023/03/24 08:16:33;;;;;;;5.10;3.10;;;;;;;13.97;95.75;99315.91;5027488;28;20680;-78
2023/03/24 08:19:00;;;;;;;6.23;2.53;;;;;;;13.83;96.62;99312.63;5024542;28;20211;-74
2023/03/24 08:21:26;;;;;;;3.83;2.80;;;;;;;13.69;97.81;99319.97;5027019;28;20223;-76
2023/03/24 08:23:52;;;;;;;4.10;3.03;;;;;;;13.49;98.42;99334.44;5024135;28;20199;-76
2023/03/24 08:26:19;;;;;;;5.50;3.53;;;;;;;13.37;99.96;99341.75;5026907;28;20222;-78
2023/03/24 08:28:45;;;;;;;5.03;3.40;;;;;;;13.25;100.00;99326.84;5029185;28;20222;-80
2023/03/24 08:31:12;;;;;;;6.97;3.83;;;;;;;13.22;100.00;99334.88;5026608;28;20234;-77
2023/03/24 08:33:38;;;;;;;4.80;3.50;;;;;;;13.28;100.00;99328.59;5026205;28;20668;-79
2023/03/24 08:36:05;;;;;;;6.27;3.53;;;;;;;13.37;100.00;99316.03;5029750;28;20202;-78
2023/03/24 08:38:31;;;;;;;5.90;3.90;;;;;;;13.49;100.00;99299.00;5024401;28;20200;-77
2023/03/24 08:41:01;;;;;;;5.07;3.40;;;;;;;13.69;100.00;99304.88;5016806;28;20510;-79
2023/03/24 08:43:29;;;;;;;4.73;2.93;;;;;;;13.69;99.34;99299.56;5024199;28;20227;-77
2023/03/24 08:45:59;;;;;;;4.50;2.63;;;;;;;13.72;98.47;99307.47;5031266;28;20243;-77
2023/03/24 08:48:27;;;;;;;3.20;1.93;;;;;;;13.68;95.77;99310.22;5031345;28;20207;-79
2023/03/24 08:50:55;;;;;;;3.93;2.20;;;;;;;13.64;96.14;99311.19;5026705;28;20226;-80
2023/03/24 08:53:21;;;;;;;3.67;1.57;;;;;;;13.53;95.96;99324.63;5026878;28;20207;-79
2023/03/24 08:55:47;;;;;;;1.47;1.20;;;;;;;13.41;96.05;99322.16;5029864;28;20196;-77
2023/03/24 08:58:16;;;;;;;1.70;1.10;;;;;;;13.09;96.81;99318.16;5029704;28;20203;-76
2023/03/24 09:00:44;;;;;;;2.43;0.87;;;;;;;12.77;97.78;99323.91;5025947;28;20231;-73
2023/03/24 09:03:20;;;;;;;1.77;1.10;;;;;;;12.68;97.91;99308.09;5026415;28;20206;-70
2023/03/24 09:05:47;;;;;;;1.53;1.10;;;;;;;12.80;98.04;99317.66;5024949;28;20321;-71
2023/03/24 09:08:16;;;;;;;2.80;1.20;;;;;;;13.09;97.78;99310.19;5023783;28;20205;-71
2023/03/24 09:10:45;;;;;;;1.63;1.30;;;;;;;13.30;94.38;99319.69;5022866;28;20226;-71
2023/03/24 09:13:13;;;;;;;1.10;1.00;;;;;;;13.49;95.00;99322.94;5029260;28;20666;-73
2023/03/24 09:15:45;;;;;;;1.80;1.10;;;;;;;13.51;93.55;99329.09;5025278;28;20199;-72
2023/03/24 09:18:12;;;;;;;1.80;1.30;;;;;;;13.51;92.41;99339.75;5027471;28;20202;-73
2023/03/24 09:20:38;;;;;;;2.17;1.00;;;;;;;13.49;91.74;99338.88;5016294;28;20227;-76
2023/03/24 09:23:05;;;;;;;2.70;1.37;;;;;;;13.44;91.35;99348.72;5017600;28;20210;-76
2023/03/24 09:25:31;;;;;;;2.67;1.40;;;;;;;13.47;91.79;99349.56;5012660;28;20255;-74
2023/03/24 09:27:58;;;;;;;3.13;1.30;;;;;;;13.25;92.94;99360.53;5016379;28;20341;-75
2023/03/24 09:30:24;;;;;;;3.20;1.23;;;;;;;13.12;93.43;99365.09;5020023;28;20705;-74
2023/03/24 09:32:51;;;;;;;1.30;1.00;;;;;;;13.00;94.29;99368.78;5021678;28;20670;-74
2023/03/24 09:35:17;;;;;;;3.27;0.80;;;;;;;12.74;94.92;99373.53;5020571;28;20191;-73
2023/03/24 09:37:45;;;;;;;1.73;1.00;;;;;;;12.49;96.03;99391.53;5029899;28;20689;-71
2023/03/24 09:40:24;;;;;;;1.60;0.70;;;;;;;12.37;97.85;99408.44;5017590;28;20197;-71
2023/03/24 09:43:20;;;;;;;0.93;0.80;;;;;;;12.19;100.00;99412.16;5029734;28;20207;-69
2023/03/24 09:45:52;;;;;;;1.83;1.00;;;;;;;12.04;100.00;99416.75;5024046;28;20224;-71
2023/03/24 09:48:41;;;;;;;1.83;1.17;;;;;;;11.93;100.00;99411.50;5043598;28;20201;-70
2023/03/24 09:51:23;;;;;;;2.73;1.27;;;;;;;12.01;100.00;99409.69;5025232;28;20582;-69
2023/03/24 09:54:21;;;;;;;4.33;1.40;;;;;;;12.09;100.00;99407.84;5023478;28;20198;-70
2023/03/24 09:56:49;;;;;;;4.03;1.63;;;;;;;12.21;100.00;99412.16;5024092;28;20206;-70
2023/03/24 09:59:35;;;;;;;2.17;1.33;;;;;;;12.29;100.00;99420.94;5029545;28;20378;-70
2023/03/24 10:02:10;;;;;;;2.60;1.20;;;;;;;12.28;100.00;99421.81;5022775;28;20246;-70
2023/03/24 10:04:36;;;;;;;2.80;1.13;;;;;;;12.24;100.00;99436.00;5027749;28;20275;-69
2023/03/24 10:07:21;;;;;;;4.23;1.10;;;;;;;12.22;100.00;99435.16;5021914;28;20549;-69
2023/03/24 10:09:55;;;;;;;1.80;1.00;;;;;;;12.17;100.00;99429.00;5016895;28;20197;-69
2023/03/24 10:12:37;;;;;;;3.73;0.93;;;;;;;12.15;100.00;99421.06;5019326;28;20338;-70
2023/03/24 10:15:24;;;;;;;1.40;1.00;;;;;;;12.17;100.00;99424.56;5021055;28;20229;-70
2023/03/24 10:18:38;;;;;;;2.00;1.03;;;;;;;12.36;100.00;99430.59;5019999;28;20281;-70
2023/03/24 10:21:09;;;;;;;4.13;1.20;;;;;;;12.71;99.69;99434.69;5019769;28;20792;-69
2023/03/24 10:24:00;;;;;;;2.20;1.43;;;;;;;13.13;97.89;99442.16;5021453;28;20245;-69
2023/03/24 10:26:49;;;;;;;2.93;1.50;;;;;;;13.53;95.48;99438.13;5018681;28;20321;-72
2023/03/24 10:29:24;;;;;;;2.43;1.13;;;;;;;13.86;93.90;99432.34;5017691;28;20196;-79
2023/03/24 10:31:57;;;;;;;2.50;1.23;;;;;;;14.06;92.00;99435.56;5016436;28;20219;-79
2023/03/24 10:34:29;;;;;;;3.03;1.10;;;;;;;14.33;90.23;99425.34;5017655;28;20254;-79
2023/03/24 10:36:58;;;;;;;1.73;1.20;;;;;;;14.55;90.34;99426.78;5019337;28;20215;-74
2023/03/24 10:39:25;;;;;;;3.30;1.20;;;;;;;14.84;88.53;99434.25;5017368;28;20651;-74
2023/03/24 10:42:16;;;;;;;1.60;0.93;;;;;;;15.18;89.26;99429.09;5024972;28;20215;-73
2023/03/24 10:44:45;;;;;;;3.33;0.93;;;;;;;15.43;86.72;99434.78;5021846;28;20203;-72
2023/03/24 10:47:13;;;;;;;5.07;1.53;;;;;;;15.92;85.73;99433.72;5023509;28;20211;-70
2023/03/24 10:49:53;;;;;;;2.27;1.40;;;;;;;16.03;83.54;99446.84;5021426;28;20199;-71
2023/03/24 10:52:19;;;;;;;4.47;1.00;;;;;;;16.25;82.09;99448.94;5026030;28;20726;-71
2023/03/24 10:54:58;;;;;;;1.90;1.00;;;;;;;16.64;80.88;99458.66;5026675;28;20226;-71
2023/03/24 10:57:26;;;;;;;2.10;1.00;;;;;;;16.78;78.93;99448.50;5025184;28;20516;-71
2023/03/24 10:59:56;;;;;;;2.43;1.10;;;;;;;16.97;77.56;99447.09;5021572;28;20191;-70
2023/03/24 11:02:25;;;;;;;3.10;0.93;;;;;;;16.59;76.54;99451.63;5019014;28;20220;-71
2023/03/24 11:05:27;;;;;;;1.90;1.20;;;;;;;16.44;78.64;99451.16;5022361;28;20196;-73
2023/03/24 11:07:58;;;;;;;1.23;0.90;;;;;;;16.65;79.09;99460.41;5023372;28;20642;-69
2023/03/24 11:10:26;;;;;;;1.50;0.80;;;;;;;16.75;80.61;99459.28;5018062;28;20617;-72
2023/03/24 11:12:52;;;;;;;3.43;1.00;;;;;;;17.19;77.26;99453.56;5025889;28;20238;-71
2023/03/24 11:15:27;;;;;;;2.10;1.00;;;;;;;17.07;76.72;99451.25;5024717;28;20199;-70
2023/03/24 11:18:02;;;;;;;2.20;0.90;;;;;;;17.31;74.51;99451.50;5025597;28;20238;-70
2023/03/24 11:20:37;;;;;;;2.30;1.00;;;;;;;17.22;74.00;99439.25;5026118;28;20195;-70
2023/03/24 11:23:12;;;;;;;1.13;0.87;;;;;;;17.07;70.80;99445.91;5024994;28;20199;-69
2023/03/24 11:25:40;;;;;;;2.87;1.00;;;;;;;16.53;72.79;99427.75;5026003;28;20223;-71
2023/03/24 11:28:15;;;;;;;4.53;2.50;;;;;;;16.58;73.51;99424.94;5021331;28;20626;-70
2023/03/24 11:30:48;;;;;;;3.30;1.83;;;;;;;16.67;74.45;99435.41;5020625;28;21057;-70
2023/03/24 11:33:33;;;;;;;3.37;1.10;;;;;;;16.68;71.23;99423.81;5029157;28;20233;-71
2023/03/24 11:36:27;;;;;;;3.80;1.20;;;;;;;16.86;69.61;99435.81;5020069;28;20683;-70
2023/03/24 11:39:03;;;;;;;1.93;1.00;;;;;;;16.45;63.63;99440.44;5017125;28;20675;-71
2023/03/24 11:41:29;;;;;;;3.20;1.10;;;;;;;16.68;65.82;99441.63;5020356;28;20219;-69
2023/03/24 11:44:15;;;;;;;1.23;0.80;;;;;;;16.98;64.44;99440.81;5020761;28;20246;-71
2023/03/24 11:46:43;;;;;;;2.53;1.07;;;;;;;16.91;63.59;99452.59;5021289;28;20211;-72
2023/03/24 11:49:15;;;;;;;5.03;1.10;;;;;;;16.80;63.74;99450.19;5023918;28;20214;-71
2023/03/24 11:51:43;;;;;;;2.73;1.20;;;;;;;16.78;61.68;99462.75;5025797;28;20234;-71